sensor_id;sensor_type;location;lat;lon;timestamp;P1;durP1;ratioP1;P2;durP2;ratioP2
62679;SDS011;48746;55.578;37.902;2022-11-02T00:02:15;7.57;;;2.95;;
62679;SDS011;48746;55.578;37.902;2022-11-02T00:04:41;5.90;;;2.95;;
62679;SDS011;48746;55.578;37.902;2022-11-02T00:07:08;8.32;;;3.28;;
62679;SDS011;48746;55.578;37.902;2022-11-02T00:09:37;6.95;;;2.92;;
62679;SDS011;48746;55.578;37.902;2022-11-02T00:12:03;11.65;;;4.00;;
62679;SDS011;48746;55.578;37.902;2022-11-02T00:14:29;11.60;;;3.60;;
62679;SDS011;48746;55.578;37.902;2022-11-02T00:16:55;10.65;;;3.50;;
62679;SDS011;48746;55.578;37.902;2022-11-02T00:19:25;6.50;;;3.55;;
62679;SDS011;48746;55.578;37.902;2022-11-02T00:21:51;4.68;;;2.70;;
62679;SDS011;48746;55.578;37.902;2022-11-02T00:24:17;6.60;;;2.80;;
62679;SDS011;48746;55.578;37.902;2022-11-02T00:26:43;9.52;;;2.78;;
62679;SDS011;48746;55.578;37.902;2022-11-02T00:32:16;9.93;;;3.65;;
62679;SDS011;48746;55.578;37.902;2022-11-02T00:34:42;5.95;;;3.03;;
62679;SDS011;48746;55.578;37.902;2022-11-02T00:37:09;5.13;;;3.03;;
62679;SDS011;48746;55.578;37.902;2022-11-02T00:42:41;9.05;;;3.50;;
62679;SDS011;48746;55.578;37.902;2022-11-02T00:45:08;7.72;;;3.85;;
62679;SDS011;48746;55.578;37.902;2022-11-02T00:47:35;11.82;;;3.67;;
62679;SDS011;48746;55.578;37.902;2022-11-02T00:53:08;9.88;;;2.80;;
62679;SDS011;48746;55.578;37.902;2022-11-02T00:55:38;10.85;;;3.75;;
62679;SDS011;48746;55.578;37.902;2022-11-02T00:58:05;8.10;;;2.83;;
62679;SDS011;48746;55.578;37.902;2022-11-02T01:00:31;7.78;;;3.55;;
62679;SDS011;48746;55.578;37.902;2022-11-02T01:03:00;5.80;;;3.10;;
62679;SDS011;48746;55.578;37.902;2022-11-02T01:05:27;7.45;;;3.28;;
62679;SDS011;48746;55.578;37.902;2022-11-02T01:07:54;6.53;;;3.00;;
62679;SDS011;48746;55.578;37.902;2022-11-02T01:13:28;8.98;;;2.83;;
62679;SDS011;48746;55.578;37.902;2022-11-02T01:15:54;7.13;;;3.30;;
62679;SDS011;48746;55.578;37.902;2022-11-02T01:18:24;8.73;;;2.92;;
62679;SDS011;48746;55.578;37.902;2022-11-02T01:20:54;7.78;;;3.65;;
62679;SDS011;48746;55.578;37.902;2022-11-02T01:23:21;8.45;;;3.20;;
62679;SDS011;48746;55.578;37.902;2022-11-02T01:25:47;9.05;;;3.40;;
62679;SDS011;48746;55.578;37.902;2022-11-02T01:28:16;5.60;;;2.90;;
62679;SDS011;48746;55.578;37.902;2022-11-02T01:30:42;11.82;;;3.13;;
62679;SDS011;48746;55.578;37.902;2022-11-02T01:33:11;6.53;;;2.95;;
62679;SDS011;48746;55.578;37.902;2022-11-02T01:35:37;10.60;;;3.35;;
62679;SDS011;48746;55.578;37.902;2022-11-02T01:38:03;8.43;;;3.15;;
62679;SDS011;48746;55.578;37.902;2022-11-02T01:40:33;6.95;;;3.05;;
62679;SDS011;48746;55.578;37.902;2022-11-02T01:43:16;11.20;;;3.38;;
62679;SDS011;48746;55.578;37.902;2022-11-02T01:45:52;5.88;;;3.05;;
62679;SDS011;48746;55.578;37.902;2022-11-02T01:48:27;10.55;;;4.18;;
62679;SDS011;48746;55.578;37.902;2022-11-02T01:50:57;7.03;;;2.90;;
62679;SDS011;48746;55.578;37.902;2022-11-02T01:53:27;6.30;;;3.03;;
62679;SDS011;48746;55.578;37.902;2022-11-02T01:55:53;5.75;;;3.42;;
62679;SDS011;48746;55.578;37.902;2022-11-02T01:58:24;6.40;;;4.00;;
62679;SDS011;48746;55.578;37.902;2022-11-02T02:00:51;5.68;;;3.10;;
62679;SDS011;48746;55.578;37.902;2022-11-02T02:03:18;6.90;;;3.20;;
62679;SDS011;48746;55.578;37.902;2022-11-02T02:05:48;6.72;;;3.25;;
62679;SDS011;48746;55.578;37.902;2022-11-02T02:08:22;6.68;;;3.10;;
62679;SDS011;48746;55.578;37.902;2022-11-02T02:10:49;7.30;;;3.47;;
62679;SDS011;48746;55.578;37.902;2022-11-02T02:13:16;7.53;;;2.78;;
62679;SDS011;48746;55.578;37.902;2022-11-02T02:19:20;12.48;;;3.67;;
62679;SDS011;48746;55.578;37.902;2022-11-02T02:27:11;6.22;;;3.50;;
62679;SDS011;48746;55.578;37.902;2022-11-02T02:29:44;8.75;;;3.20;;
62679;SDS011;48746;55.578;37.902;2022-11-02T02:35:32;11.00;;;3.63;;
62679;SDS011;48746;55.578;37.902;2022-11-02T02:41:13;8.60;;;3.15;;
62679;SDS011;48746;55.578;37.902;2022-11-02T02:43:53;7.65;;;3.50;;
62679;SDS011;48746;55.578;37.902;2022-11-02T02:46:22;7.03;;;3.53;;
62679;SDS011;48746;55.578;37.902;2022-11-02T02:51:59;8.68;;;2.75;;
62679;SDS011;48746;55.578;37.902;2022-11-02T02:54:30;8.60;;;3.70;;
62679;SDS011;48746;55.578;37.902;2022-11-02T02:57:02;6.43;;;3.53;;
62679;SDS011;48746;55.578;37.902;2022-11-02T02:59:45;10.00;;;3.42;;
62679;SDS011;48746;55.578;37.902;2022-11-02T03:02:15;7.15;;;3.10;;
62679;SDS011;48746;55.578;37.902;2022-11-02T03:04:51;7.15;;;3.13;;
62679;SDS011;48746;55.578;37.902;2022-11-02T03:07:31;7.60;;;3.60;;
62679;SDS011;48746;55.578;37.902;2022-11-02T03:13:13;13.77;;;3.88;;
62679;SDS011;48746;55.578;37.902;2022-11-02T03:15:49;10.98;;;5.35;;
62679;SDS011;48746;55.578;37.902;2022-11-02T03:18:36;12.18;;;4.68;;
62679;SDS011;48746;55.578;37.902;2022-11-02T03:21:23;6.80;;;4.05;;
62679;SDS011;48746;55.578;37.902;2022-11-02T03:26:33;6.32;;;3.92;;
62679;SDS011;48746;55.578;37.902;2022-11-02T03:31:45;8.23;;;3.80;;
62679;SDS011;48746;55.578;37.902;2022-11-02T03:34:32;7.82;;;3.10;;
62679;SDS011;48746;55.578;37.902;2022-11-02T03:37:10;8.20;;;3.55;;
62679;SDS011;48746;55.578;37.902;2022-11-02T03:39:52;6.07;;;3.05;;
62679;SDS011;48746;55.578;37.902;2022-11-02T03:42:25;8.32;;;3.40;;
62679;SDS011;48746;55.578;37.902;2022-11-02T03:44:57;10.52;;;4.05;;
62679;SDS011;48746;55.578;37.902;2022-11-02T03:47:26;8.95;;;3.65;;
62679;SDS011;48746;55.578;37.902;2022-11-02T03:49:57;9.88;;;3.85;;
62679;SDS011;48746;55.578;37.902;2022-11-02T03:52:26;7.10;;;3.42;;
62679;SDS011;48746;55.578;37.902;2022-11-02T03:55:17;12.70;;;3.65;;
62679;SDS011;48746;55.578;37.902;2022-11-02T03:57:49;7.30;;;3.83;;
62679;SDS011;48746;55.578;37.902;2022-11-02T04:00:24;14.95;;;4.60;;
62679;SDS011;48746;55.578;37.902;2022-11-02T04:02:59;14.05;;;4.18;;
62679;SDS011;48746;55.578;37.902;2022-11-02T04:05:30;11.45;;;3.97;;
62679;SDS011;48746;55.578;37.902;2022-11-02T04:08:00;14.00;;;3.90;;
62679;SDS011;48746;55.578;37.902;2022-11-02T04:10:48;13.93;;;4.13;;
62679;SDS011;48746;55.578;37.902;2022-11-02T04:13:33;9.98;;;4.30;;
62679;SDS011;48746;55.578;37.902;2022-11-02T04:16:19;12.23;;;4.63;;
62679;SDS011;48746;55.578;37.902;2022-11-02T04:21:57;25.85;;;5.07;;
62679;SDS011;48746;55.578;37.902;2022-11-02T04:24:45;11.93;;;5.28;;
62679;SDS011;48746;55.578;37.902;2022-11-02T04:27:31;15.05;;;4.95;;
62679;SDS011;48746;55.578;37.902;2022-11-02T04:29:58;19.05;;;5.43;;
62679;SDS011;48746;55.578;37.902;2022-11-02T04:32:28;11.93;;;6.22;;
62679;SDS011;48746;55.578;37.902;2022-11-02T04:35:16;15.38;;;6.80;;
62679;SDS011;48746;55.578;37.902;2022-11-02T04:37:44;20.33;;;7.10;;
62679;SDS011;48746;55.578;37.902;2022-11-02T04:40:33;26.65;;;6.45;;
62679;SDS011;48746;55.578;37.902;2022-11-02T04:43:02;20.30;;;6.78;;
62679;SDS011;48746;55.578;37.902;2022-11-02T04:45:29;17.48;;;6.50;;
62679;SDS011;48746;55.578;37.902;2022-11-02T04:48:05;18.25;;;6.60;;
62679;SDS011;48746;55.578;37.902;2022-11-02T04:50:33;13.68;;;6.30;;
62679;SDS011;48746;55.578;37.902;2022-11-02T04:53:01;15.93;;;6.47;;
62679;SDS011;48746;55.578;37.902;2022-11-02T04:55:30;10.32;;;5.78;;
62679;SDS011;48746;55.578;37.902;2022-11-02T04:57:57;14.05;;;5.95;;
62679;SDS011;48746;55.578;37.902;2022-11-02T05:00:23;10.30;;;5.63;;
62679;SDS011;48746;55.578;37.902;2022-11-02T05:02:51;13.98;;;5.70;;
62679;SDS011;48746;55.578;37.902;2022-11-02T05:05:19;12.65;;;5.82;;
62679;SDS011;48746;55.578;37.902;2022-11-02T05:07:48;12.60;;;6.15;;
62679;SDS011;48746;55.578;37.902;2022-11-02T05:10:15;11.02;;;5.93;;
62679;SDS011;48746;55.578;37.902;2022-11-02T05:12:43;16.73;;;6.00;;
62679;SDS011;48746;55.578;37.902;2022-11-02T05:15:10;15.35;;;6.90;;
62679;SDS011;48746;55.578;37.902;2022-11-02T05:17:37;13.50;;;6.07;;
62679;SDS011;48746;55.578;37.902;2022-11-02T05:20:04;12.13;;;5.30;;
62679;SDS011;48746;55.578;37.902;2022-11-02T05:22:31;10.52;;;5.55;;
62679;SDS011;48746;55.578;37.902;2022-11-02T05:24:58;12.93;;;6.25;;
62679;SDS011;48746;55.578;37.902;2022-11-02T05:27:24;13.82;;;5.90;;
62679;SDS011;48746;55.578;37.902;2022-11-02T05:29:50;16.60;;;6.15;;
62679;SDS011;48746;55.578;37.902;2022-11-02T05:32:17;12.95;;;5.68;;
62679;SDS011;48746;55.578;37.902;2022-11-02T05:34:43;13.32;;;6.28;;
62679;SDS011;48746;55.578;37.902;2022-11-02T05:37:09;18.75;;;6.45;;
62679;SDS011;48746;55.578;37.902;2022-11-02T05:42:42;14.80;;;6.65;;
62679;SDS011;48746;55.578;37.902;2022-11-02T05:45:09;15.65;;;7.20;;
62679;SDS011;48746;55.578;37.902;2022-11-02T05:47:35;17.30;;;8.63;;
62679;SDS011;48746;55.578;37.902;2022-11-02T05:50:01;16.02;;;7.63;;
62679;SDS011;48746;55.578;37.902;2022-11-02T05:52:29;17.10;;;8.52;;
62679;SDS011;48746;55.578;37.902;2022-11-02T05:54:55;18.25;;;8.13;;
62679;SDS011;48746;55.578;37.902;2022-11-02T05:57:21;17.35;;;7.60;;
62679;SDS011;48746;55.578;37.902;2022-11-02T05:59:47;14.93;;;7.63;;
62679;SDS011;48746;55.578;37.902;2022-11-02T06:02:13;12.82;;;7.53;;
62679;SDS011;48746;55.578;37.902;2022-11-02T06:04:39;13.10;;;7.68;;
62679;SDS011;48746;55.578;37.902;2022-11-02T06:07:06;16.20;;;8.55;;
62679;SDS011;48746;55.578;37.902;2022-11-02T06:12:38;21.02;;;10.07;;
62679;SDS011;48746;55.578;37.902;2022-11-02T06:15:05;17.63;;;10.43;;
62679;SDS011;48746;55.578;37.902;2022-11-02T06:17:38;20.70;;;10.73;;
62679;SDS011;48746;55.578;37.902;2022-11-02T06:20:04;20.20;;;11.38;;
62679;SDS011;48746;55.578;37.902;2022-11-02T06:22:39;15.80;;;9.13;;
62679;SDS011;48746;55.578;37.902;2022-11-02T06:25:07;20.15;;;9.38;;
62679;SDS011;48746;55.578;37.902;2022-11-02T06:27:34;23.73;;;9.55;;
62679;SDS011;48746;55.578;37.902;2022-11-02T06:30:01;15.68;;;8.70;;
62679;SDS011;48746;55.578;37.902;2022-11-02T06:32:29;11.77;;;8.65;;
62679;SDS011;48746;55.578;37.902;2022-11-02T06:34:55;16.50;;;8.82;;
62679;SDS011;48746;55.578;37.902;2022-11-02T06:37:22;12.95;;;9.60;;
62679;SDS011;48746;55.578;37.902;2022-11-02T06:42:54;15.40;;;9.45;;
62679;SDS011;48746;55.578;37.902;2022-11-02T06:45:21;14.95;;;8.57;;
62679;SDS011;48746;55.578;37.902;2022-11-02T06:47:48;15.43;;;9.98;;
62679;SDS011;48746;55.578;37.902;2022-11-02T06:50:14;16.27;;;9.85;;
62679;SDS011;48746;55.578;37.902;2022-11-02T06:52:44;20.58;;;10.18;;
62679;SDS011;48746;55.578;37.902;2022-11-02T06:55:12;19.17;;;10.93;;
62679;SDS011;48746;55.578;37.902;2022-11-02T06:57:38;20.92;;;11.30;;
62679;SDS011;48746;55.578;37.902;2022-11-02T07:03:12;22.08;;;11.50;;
62679;SDS011;48746;55.578;37.902;2022-11-02T07:05:39;18.63;;;10.80;;
62679;SDS011;48746;55.578;37.902;2022-11-02T07:08:08;20.73;;;11.82;;
62679;SDS011;48746;55.578;37.902;2022-11-02T07:10:34;21.85;;;11.35;;
62679;SDS011;48746;55.578;37.902;2022-11-02T07:13:00;20.08;;;10.73;;
62679;SDS011;48746;55.578;37.902;2022-11-02T07:15:27;18.20;;;10.75;;
62679;SDS011;48746;55.578;37.902;2022-11-02T07:17:53;18.65;;;10.40;;
62679;SDS011;48746;55.578;37.902;2022-11-02T07:20:19;20.75;;;11.18;;
62679;SDS011;48746;55.578;37.902;2022-11-02T07:22:53;18.45;;;10.57;;
62679;SDS011;48746;55.578;37.902;2022-11-02T07:25:21;22.67;;;11.25;;
62679;SDS011;48746;55.578;37.902;2022-11-02T07:27:48;21.55;;;11.75;;
62679;SDS011;48746;55.578;37.902;2022-11-02T07:30:14;18.33;;;11.55;;
62679;SDS011;48746;55.578;37.902;2022-11-02T07:32:41;22.33;;;11.15;;
62679;SDS011;48746;55.578;37.902;2022-11-02T07:35:08;18.67;;;11.18;;
62679;SDS011;48746;55.578;37.902;2022-11-02T07:37:36;24.00;;;12.05;;
62679;SDS011;48746;55.578;37.902;2022-11-02T07:40:02;23.55;;;11.25;;
62679;SDS011;48746;55.578;37.902;2022-11-02T07:42:29;20.25;;;11.73;;
62679;SDS011;48746;55.578;37.902;2022-11-02T07:44:56;22.75;;;12.45;;
62679;SDS011;48746;55.578;37.902;2022-11-02T07:47:23;31.45;;;12.15;;
62679;SDS011;48746;55.578;37.902;2022-11-02T07:49:49;19.20;;;11.85;;
62679;SDS011;48746;55.578;37.902;2022-11-02T07:52:15;18.08;;;10.13;;
62679;SDS011;48746;55.578;37.902;2022-11-02T07:54:41;18.85;;;12.00;;
62679;SDS011;48746;55.578;37.902;2022-11-02T07:57:07;18.17;;;9.85;;
62679;SDS011;48746;55.578;37.902;2022-11-02T07:59:36;24.35;;;13.07;;
62679;SDS011;48746;55.578;37.902;2022-11-02T08:02:03;24.85;;;11.63;;
62679;SDS011;48746;55.578;37.902;2022-11-02T08:04:29;22.77;;;10.95;;
62679;SDS011;48746;55.578;37.902;2022-11-02T08:06:56;19.00;;;11.40;;
62679;SDS011;48746;55.578;37.902;2022-11-02T08:09:26;21.10;;;10.20;;
62679;SDS011;48746;55.578;37.902;2022-11-02T08:11:52;19.48;;;10.60;;
62679;SDS011;48746;55.578;37.902;2022-11-02T08:14:18;25.23;;;11.13;;
62679;SDS011;48746;55.578;37.902;2022-11-02T08:16:44;18.63;;;10.50;;
62679;SDS011;48746;55.578;37.902;2022-11-02T08:19:15;18.33;;;10.38;;
62679;SDS011;48746;55.578;37.902;2022-11-02T08:21:42;21.25;;;11.40;;
62679;SDS011;48746;55.578;37.902;2022-11-02T08:24:08;18.83;;;11.10;;
62679;SDS011;48746;55.578;37.902;2022-11-02T08:26:35;21.40;;;10.82;;
62679;SDS011;48746;55.578;37.902;2022-11-02T08:29:04;20.88;;;11.05;;
62679;SDS011;48746;55.578;37.902;2022-11-02T08:31:30;17.65;;;10.05;;
62679;SDS011;48746;55.578;37.902;2022-11-02T08:33:57;18.08;;;10.38;;
62679;SDS011;48746;55.578;37.902;2022-11-02T08:36:23;17.05;;;10.52;;
62679;SDS011;48746;55.578;37.902;2022-11-02T08:38:52;17.05;;;9.43;;
62679;SDS011;48746;55.578;37.902;2022-11-02T08:41:18;21.85;;;10.18;;
62679;SDS011;48746;55.578;37.902;2022-11-02T08:43:44;22.02;;;9.43;;
62679;SDS011;48746;55.578;37.902;2022-11-02T08:46:10;16.45;;;9.73;;
62679;SDS011;48746;55.578;37.902;2022-11-02T08:48:40;17.58;;;11.05;;
62679;SDS011;48746;55.578;37.902;2022-11-02T08:51:06;20.15;;;9.77;;
62679;SDS011;48746;55.578;37.902;2022-11-02T08:53:33;26.35;;;11.00;;
62679;SDS011;48746;55.578;37.902;2022-11-02T08:55:59;20.33;;;10.38;;
62679;SDS011;48746;55.578;37.902;2022-11-02T08:58:29;20.25;;;9.48;;
62679;SDS011;48746;55.578;37.902;2022-11-02T09:00:55;23.35;;;10.40;;
62679;SDS011;48746;55.578;37.902;2022-11-02T09:03:21;19.30;;;8.80;;
62679;SDS011;48746;55.578;37.902;2022-11-02T09:05:49;16.60;;;9.20;;
62679;SDS011;48746;55.578;37.902;2022-11-02T09:08:24;17.80;;;8.07;;
62679;SDS011;48746;55.578;37.902;2022-11-02T09:10:52;14.73;;;7.68;;
62679;SDS011;48746;55.578;37.902;2022-11-02T09:13:19;14.10;;;7.80;;
62679;SDS011;48746;55.578;37.902;2022-11-02T09:15:50;23.92;;;8.27;;
62679;SDS011;48746;55.578;37.902;2022-11-02T09:18:21;15.05;;;7.78;;
62679;SDS011;48746;55.578;37.902;2022-11-02T09:20:48;13.57;;;7.57;;
62679;SDS011;48746;55.578;37.902;2022-11-02T09:23:16;19.02;;;9.75;;
62679;SDS011;48746;55.578;37.902;2022-11-02T09:25:43;20.27;;;8.85;;
62679;SDS011;48746;55.578;37.902;2022-11-02T09:28:13;14.30;;;7.78;;
62679;SDS011;48746;55.578;37.902;2022-11-02T09:30:40;13.57;;;8.23;;
62679;SDS011;48746;55.578;37.902;2022-11-02T09:33:07;15.75;;;8.18;;
62679;SDS011;48746;55.578;37.902;2022-11-02T09:35:35;12.68;;;7.28;;
62679;SDS011;48746;55.578;37.902;2022-11-02T09:38:07;17.33;;;9.13;;
62679;SDS011;48746;55.578;37.902;2022-11-02T09:40:40;20.75;;;8.57;;
62679;SDS011;48746;55.578;37.902;2022-11-02T09:45:52;15.38;;;9.10;;
62679;SDS011;48746;55.578;37.902;2022-11-02T09:51:15;15.65;;;9.45;;
62679;SDS011;48746;55.578;37.902;2022-11-02T09:56:31;15.25;;;8.70;;
62679;SDS011;48746;55.578;37.902;2022-11-02T09:59:03;16.58;;;8.85;;
62679;SDS011;48746;55.578;37.902;2022-11-02T10:01:46;15.02;;;9.02;;
62679;SDS011;48746;55.578;37.902;2022-11-02T10:15:59;16.40;;;9.20;;
62679;SDS011;48746;55.578;37.902;2022-11-02T10:21:37;16.50;;;9.35;;
62679;SDS011;48746;55.578;37.902;2022-11-02T10:24:17;16.48;;;8.30;;
62679;SDS011;48746;55.578;37.902;2022-11-02T10:27:03;16.83;;;8.00;;
62679;SDS011;48746;55.578;37.902;2022-11-02T10:32:39;20.48;;;8.57;;
62679;SDS011;48746;55.578;37.902;2022-11-02T10:52:12;16.08;;;7.80;;
62679;SDS011;48746;55.578;37.902;2022-11-02T10:57:12;20.20;;;8.40;;
62679;SDS011;48746;55.578;37.902;2022-11-02T10:59:42;14.38;;;7.93;;
62679;SDS011;48746;55.578;37.902;2022-11-02T11:02:11;23.13;;;8.55;;
62679;SDS011;48746;55.578;37.902;2022-11-02T11:07:16;16.90;;;7.72;;
62679;SDS011;48746;55.578;37.902;2022-11-02T11:09:55;13.88;;;7.25;;
62679;SDS011;48746;55.578;37.902;2022-11-02T11:12:24;14.40;;;7.80;;
62679;SDS011;48746;55.578;37.902;2022-11-02T11:14:55;10.32;;;5.68;;
62679;SDS011;48746;55.578;37.902;2022-11-02T11:17:23;18.73;;;7.25;;
62679;SDS011;48746;55.578;37.902;2022-11-02T11:19:54;10.68;;;6.45;;
62679;SDS011;48746;55.578;37.902;2022-11-02T11:22:31;20.25;;;8.18;;
62679;SDS011;48746;55.578;37.902;2022-11-02T11:25:17;16.63;;;7.45;;
62679;SDS011;48746;55.578;37.902;2022-11-02T11:27:47;10.65;;;6.30;;
62679;SDS011;48746;55.578;37.902;2022-11-02T11:30:48;10.77;;;5.63;;
62679;SDS011;48746;55.578;37.902;2022-11-02T11:33:13;12.25;;;6.85;;
62679;SDS011;48746;55.578;37.902;2022-11-02T11:35:40;15.15;;;6.82;;
62679;SDS011;48746;55.578;37.902;2022-11-02T11:38:20;16.75;;;6.88;;
62679;SDS011;48746;55.578;37.902;2022-11-02T11:40:49;15.55;;;7.40;;
62679;SDS011;48746;55.578;37.902;2022-11-02T11:43:19;15.43;;;7.27;;
62679;SDS011;48746;55.578;37.902;2022-11-02T11:45:53;36.05;;;7.70;;
62679;SDS011;48746;55.578;37.902;2022-11-02T11:51:23;9.82;;;4.75;;
62679;SDS011;48746;55.578;37.902;2022-11-02T11:56:43;15.80;;;7.30;;
62679;SDS011;48746;55.578;37.902;2022-11-02T11:59:19;14.02;;;6.70;;
62679;SDS011;48746;55.578;37.902;2022-11-02T12:01:47;9.18;;;5.38;;
62679;SDS011;48746;55.578;37.902;2022-11-02T12:04:14;13.20;;;6.85;;
62679;SDS011;48746;55.578;37.902;2022-11-02T12:09:45;16.23;;;7.97;;
62679;SDS011;48746;55.578;37.902;2022-11-02T12:15:09;14.35;;;7.45;;
62679;SDS011;48746;55.578;37.902;2022-11-02T12:25:54;14.65;;;7.00;;
62679;SDS011;48746;55.578;37.902;2022-11-02T12:31:36;16.75;;;7.90;;
62679;SDS011;48746;55.578;37.902;2022-11-02T12:42:43;15.80;;;7.95;;
62679;SDS011;48746;55.578;37.902;2022-11-02T12:45:25;15.18;;;7.25;;
62679;SDS011;48746;55.578;37.902;2022-11-02T12:47:57;23.65;;;6.50;;
62679;SDS011;48746;55.578;37.902;2022-11-02T12:55:59;11.85;;;6.00;;
62679;SDS011;48746;55.578;37.902;2022-11-02T13:01:36;10.85;;;6.07;;
62679;SDS011;48746;55.578;37.902;2022-11-02T13:06:38;20.10;;;11.60;;
62679;SDS011;48746;55.578;37.902;2022-11-02T13:12:16;9.88;;;5.78;;
62679;SDS011;48746;55.578;37.902;2022-11-02T13:14:47;9.02;;;5.05;;
62679;SDS011;48746;55.578;37.902;2022-11-02T13:22:49;14.80;;;5.88;;
62679;SDS011;48746;55.578;37.902;2022-11-02T13:25:20;11.30;;;6.63;;
62679;SDS011;48746;55.578;37.902;2022-11-02T13:27:52;21.15;;;6.88;;
62679;SDS011;48746;55.578;37.902;2022-11-02T13:30:21;10.40;;;5.97;;
62679;SDS011;48746;55.578;37.902;2022-11-02T13:51:58;9.15;;;5.00;;
62679;SDS011;48746;55.578;37.902;2022-11-02T13:54:29;10.68;;;5.30;;
62679;SDS011;48746;55.578;37.902;2022-11-02T13:56:59;9.93;;;5.68;;
62679;SDS011;48746;55.578;37.902;2022-11-02T14:02:34;7.25;;;4.30;;
62679;SDS011;48746;55.578;37.902;2022-11-02T14:05:02;9.90;;;5.30;;
62679;SDS011;48746;55.578;37.902;2022-11-02T14:07:33;9.52;;;5.13;;
62679;SDS011;48746;55.578;37.902;2022-11-02T14:10:12;8.63;;;4.78;;
62679;SDS011;48746;55.578;37.902;2022-11-02T14:12:44;15.60;;;5.50;;
62679;SDS011;48746;55.578;37.902;2022-11-02T14:23:28;15.00;;;5.20;;
62679;SDS011;48746;55.578;37.902;2022-11-02T14:25:48;9.65;;;4.90;;
62679;SDS011;48746;55.578;37.902;2022-11-02T14:31:30;12.73;;;4.70;;
62679;SDS011;48746;55.578;37.902;2022-11-02T14:47:27;15.52;;;5.15;;
62679;SDS011;48746;55.578;37.902;2022-11-02T14:49:56;12.80;;;5.65;;
62679;SDS011;48746;55.578;37.902;2022-11-02T14:52:32;18.90;;;5.63;;
62679;SDS011;48746;55.578;37.902;2022-11-02T14:58:23;12.85;;;6.18;;
62679;SDS011;48746;55.578;37.902;2022-11-02T15:03:33;14.38;;;6.13;;
62679;SDS011;48746;55.578;37.902;2022-11-02T15:24:55;8.85;;;3.92;;
62679;SDS011;48746;55.578;37.902;2022-11-02T15:27:28;12.38;;;5.53;;
62679;SDS011;48746;55.578;37.902;2022-11-02T15:29:55;7.82;;;5.03;;
62679;SDS011;48746;55.578;37.902;2022-11-02T15:32:23;9.80;;;4.90;;
62679;SDS011;48746;55.578;37.902;2022-11-02T15:34:51;11.50;;;6.47;;
62679;SDS011;48746;55.578;37.902;2022-11-02T15:39:58;20.45;;;6.05;;
62679;SDS011;48746;55.578;37.902;2022-11-02T15:45:35;12.35;;;4.65;;
62679;SDS011;48746;55.578;37.902;2022-11-02T15:54:12;14.23;;;6.10;;
62679;SDS011;48746;55.578;37.902;2022-11-02T16:05:21;13.15;;;6.40;;
62679;SDS011;48746;55.578;37.902;2022-11-02T16:07:53;15.13;;;6.82;;
62679;SDS011;48746;55.578;37.902;2022-11-02T16:15:38;15.75;;;6.75;;
62679;SDS011;48746;55.578;37.902;2022-11-02T16:18:24;11.45;;;6.35;;
62679;SDS011;48746;55.578;37.902;2022-11-02T16:20:56;16.80;;;7.30;;
62679;SDS011;48746;55.578;37.902;2022-11-02T16:23:26;12.13;;;6.13;;
62679;SDS011;48746;55.578;37.902;2022-11-02T16:25:54;18.85;;;7.20;;
62679;SDS011;48746;55.578;37.902;2022-11-02T16:28:31;12.80;;;6.82;;
62679;SDS011;48746;55.578;37.902;2022-11-02T16:30:59;10.25;;;6.22;;
62679;SDS011;48746;55.578;37.902;2022-11-02T16:33:30;11.48;;;6.28;;
62679;SDS011;48746;55.578;37.902;2022-11-02T16:35:57;13.90;;;6.90;;
62679;SDS011;48746;55.578;37.902;2022-11-02T16:38:27;11.68;;;7.10;;
62679;SDS011;48746;55.578;37.902;2022-11-02T16:40:54;16.95;;;6.80;;
62679;SDS011;48746;55.578;37.902;2022-11-02T16:43:23;22.52;;;6.43;;
62679;SDS011;48746;55.578;37.902;2022-11-02T16:45:50;13.00;;;6.07;;
62679;SDS011;48746;55.578;37.902;2022-11-02T16:48:24;16.35;;;6.43;;
62679;SDS011;48746;55.578;37.902;2022-11-02T16:51:33;13.68;;;6.43;;
62679;SDS011;48746;55.578;37.902;2022-11-02T16:53:43;14.27;;;5.70;;
62679;SDS011;48746;55.578;37.902;2022-11-02T16:58:56;12.38;;;6.20;;
62679;SDS011;48746;55.578;37.902;2022-11-02T17:01:37;11.82;;;5.30;;
62679;SDS011;48746;55.578;37.902;2022-11-02T17:06:43;16.13;;;6.20;;
62679;SDS011;48746;55.578;37.902;2022-11-02T17:09:21;10.27;;;4.45;;
62679;SDS011;48746;55.578;37.902;2022-11-02T17:11:55;11.73;;;6.05;;
62679;SDS011;48746;55.578;37.902;2022-11-02T17:16:58;14.50;;;5.32;;
62679;SDS011;48746;55.578;37.902;2022-11-02T17:22:09;12.35;;;5.70;;
62679;SDS011;48746;55.578;37.902;2022-11-02T17:27:31;22.00;;;5.65;;
62679;SDS011;48746;55.578;37.902;2022-11-02T17:29:58;10.27;;;5.80;;
62679;SDS011;48746;55.578;37.902;2022-11-02T17:32:24;12.00;;;5.88;;
62679;SDS011;48746;55.578;37.902;2022-11-02T17:34:51;13.27;;;5.65;;
62679;SDS011;48746;55.578;37.902;2022-11-02T17:37:28;19.33;;;6.05;;
62679;SDS011;48746;55.578;37.902;2022-11-02T17:40:01;8.80;;;5.60;;
62679;SDS011;48746;55.578;37.902;2022-11-02T17:42:29;10.00;;;5.70;;
62679;SDS011;48746;55.578;37.902;2022-11-02T17:45:55;10.48;;;4.60;;
62679;SDS011;48746;55.578;37.902;2022-11-02T17:51:10;10.63;;;5.50;;
62679;SDS011;48746;55.578;37.902;2022-11-02T17:53:37;15.73;;;5.88;;
62679;SDS011;48746;55.578;37.902;2022-11-02T17:56:03;10.25;;;5.80;;
62679;SDS011;48746;55.578;37.902;2022-11-02T18:01:36;9.35;;;5.65;;
62679;SDS011;48746;55.578;37.902;2022-11-02T18:04:02;12.50;;;5.93;;
62679;SDS011;48746;55.578;37.902;2022-11-02T18:06:28;10.07;;;5.40;;
62679;SDS011;48746;55.578;37.902;2022-11-02T18:12:01;9.57;;;4.82;;
62679;SDS011;48746;55.578;37.902;2022-11-02T18:14:27;25.60;;;6.45;;
62679;SDS011;48746;55.578;37.902;2022-11-02T18:16:53;10.10;;;5.72;;
62679;SDS011;48746;55.578;37.902;2022-11-02T18:22:28;8.20;;;5.00;;
62679;SDS011;48746;55.578;37.902;2022-11-02T18:24:53;11.98;;;5.93;;
62679;SDS011;48746;55.578;37.902;2022-11-02T18:27:20;9.60;;;4.80;;
62679;SDS011;48746;55.578;37.902;2022-11-02T18:29:46;8.40;;;4.72;;
62679;SDS011;48746;55.578;37.902;2022-11-02T18:32:13;10.90;;;4.70;;
62679;SDS011;48746;55.578;37.902;2022-11-02T18:34:39;8.13;;;4.50;;
62679;SDS011;48746;55.578;37.902;2022-11-02T18:37:07;14.18;;;4.97;;
62679;SDS011;48746;55.578;37.902;2022-11-02T18:39:33;11.10;;;4.82;;
62679;SDS011;48746;55.578;37.902;2022-11-02T18:42:00;5.60;;;4.03;;
62679;SDS011;48746;55.578;37.902;2022-11-02T18:44:26;8.25;;;4.47;;
62679;SDS011;48746;55.578;37.902;2022-11-02T18:46:52;10.15;;;5.10;;
62679;SDS011;48746;55.578;37.902;2022-11-02T18:52:26;8.30;;;4.38;;
62679;SDS011;48746;55.578;37.902;2022-11-02T18:54:54;8.45;;;4.50;;
62679;SDS011;48746;55.578;37.902;2022-11-02T18:57:21;8.48;;;4.07;;
62679;SDS011;48746;55.578;37.902;2022-11-02T18:59:47;10.05;;;5.00;;
62679;SDS011;48746;55.578;37.902;2022-11-02T19:02:14;8.65;;;4.13;;
62679;SDS011;48746;55.578;37.902;2022-11-02T19:04:40;6.38;;;3.95;;
62679;SDS011;48746;55.578;37.902;2022-11-02T19:07:06;8.77;;;4.70;;
62679;SDS011;48746;55.578;37.902;2022-11-02T19:09:52;9.45;;;4.63;;
62679;SDS011;48746;55.578;37.902;2022-11-02T19:12:18;6.38;;;3.80;;
62679;SDS011;48746;55.578;37.902;2022-11-02T19:14:48;5.35;;;4.13;;
62679;SDS011;48746;55.578;37.902;2022-11-02T19:17:16;7.30;;;4.38;;
62679;SDS011;48746;55.578;37.902;2022-11-02T19:22:52;5.22;;;4.10;;
62679;SDS011;48746;55.578;37.902;2022-11-02T19:25:19;7.53;;;4.07;;